Terminal Aerodrome Forecast
Issued by NWS Dodge City, KS

Home | Current Version | Previous Version | Graphics & Text | Print | Product List | Glossary Off
Versions: 1 2 3 4 5 6 7 8 9 10 11 12 13 14 15 16 17 18 19 20 21 22 23 24 25 26 27

000
FTUS43 KDDC 271905 AAA
TAFDDC
TAF AMD
KDDC 271905Z 2719/2818 15010KT P6SM SCT090
     FM280000 15009KT P6SM SCT100
     FM280300 11007KT P6SM VCTS BKN100CB
     FM280600 14005KT P6SM VCSH BKN100=

USA.gov is the U.S. government's official web portal to all federal, state and local government web resources and services.